Florence, SC

3:37 PM EDT on July 22, 2014 (GMT -0400)
Florence Regional (KFLO) Elev 148 ft | 34.19 °N, 79.72 °W | Change Station

Current weather conditions updated 44 minutes ago

Scattered Clouds
Scattered Clouds
88 °F
Feels Like 96 °F
N
7
Wind Variable Wind from East

Today is forecast to be nearly the same temperature as yesterday.

Today
High -- | Low -- °F
--% Chance of Precip.
Yesterday
High -- | Low -- °F
Precip. -- in
6:22 AM 8:27 PM
Waning Crescent, 15% visible
Pressure 30.09 in
Visibility 10.0 miles
Clouds Scattered Clouds 2400 ft
Heat Index 96 °F
Dew Point 73 °F
Humidity 61%
Rainfall 0.01 in
Snow Depth Not available.
UV 9 out of 12
Pollen 1.90 out of 12
Ozone Good
Flu Activity Sporadic
METAR KFLO 221853Z 09006KT 10SM SCT024 31/23 A3010 RMK AO2 SLP188 T03110228

More Conditions Fewer Conditions

Pressure 30.09 in
Visibility 10.0 miles
Clouds Scattered Clouds 2400 ft
Heat Index 96 °F
Dew Point 73 °F
Humidity 61%
Rainfall 0.01 in
Snow Depth Not available.
UV 9 out of 12
Pollen 1.90 out of 12
Ozone Good
Flu Activity Sporadic
METAR KFLO 221853Z 09006KT 10SM SCT024 31/23 A3010 RMK AO2 SLP188 T03110228

More Conditions Fewer Conditions

10-Day Weather Forecast

Almanac

Astronomy

Jul. 22, 2014 Rise Set
Actual Time 6:22 AM EDT 8:27 PM EDT
Civil Twilight 5:54 AM EDT 8:55 PM EDT
Nautical Twilight 5:20 AM EDT 9:29 PM EDT
Astronomical Twilight 4:43 AM EDT 10:06 PM EDT
Moon 2:53 AM EDT 5:04 PM EDT
Length of Visible Light 15h 00m
Length of Day
14h 04m
Tomorrow will be 1m 19s shorter.
Waning Crescent, 15% of the Moon is Illuminated
Today
Waning Crescent
Jul 26
New
Aug 3
First Quarter
Aug 10
Full
Aug 17
Last Quarter

Today's Extremes

State Highs State Lows

Community

WunderPhotos

Upload Photos

1,736,341 photos uploaded!

Nearby

Air Quality

  Air Quality AQ Index Pollutant
Yesterday Good
PM2.5
Yesterday Good
OZONE
Current Good
OZONE
Tuesday Good
OZONE

Snow Depth

Station Depth Elevation
No new snow has been reported.

Earthquake Activity

City Distance Mag. Time & Date
No recent earthquake activity has been reported nearby.
Minimum magnitude displayed is 2.5.

Coastal Water Temperatures

Place Temperature
No Stations Reporting

Nearby Weather Stations

Station Location Temp. Heat Index Dew Point Humidity Wind Precip. Elev Updated Type
The Abbeys, Florence, SC 85.6 °F 97 °F 77 °F 76% NNW  at  2.7 mph - / hr 138 ft 3:32 PM EDT Normal
Savannah Grove, Effingham, SC 89.8 °F 105 °F 79 °F 70% WSW  at  3.2 mph - / hr 138 ft 3:26 PM EDT Normal
Cambridge Apartments, Florence, SC 88.3 °F 99 °F 74 °F 67% North  at  - - / hr 141 ft 3:35 PM EDT Normal
South Darlington, Darlington, SC 80.2 °F 83 °F 69 °F 69% North  at  - - / hr 149 ft 3:35 PM EDT Normal
Mechanicsville, Darlington, SC 87.5 °F 98 °F 76 °F 69% NE  at  2.0 mph 0.00 in / hr 144 ft 3:37 PM EDT Rapid Fire
RAWS MARION 01 SC, Marion, SC 85 °F 92 °F 73 °F 68% NE  at  4 mph 0.00 in / hr 92 ft 2:07 PM EDT MADIS

Show More Stations Show Fewer Stations